createdAt,value
2018-12-12T00:00:27.158Z,33.80
2018-12-12T00:02:54.639Z,33.60
2018-12-12T00:05:22.103Z,33.50
2018-12-12T00:07:49.543Z,33.20
2018-12-12T00:10:19.307Z,33.10
2018-12-12T00:12:48.181Z,33.00
2018-12-12T00:15:17.255Z,32.80
2018-12-12T00:17:44.724Z,32.50
2018-12-12T00:20:12.164Z,32.40
2018-12-12T00:22:39.699Z,32.90
2018-12-12T00:25:07.115Z,32.20
2018-12-12T00:27:34.562Z,32.00
2018-12-12T00:30:02.106Z,31.90
2018-12-12T00:32:29.555Z,31.60
2018-12-12T00:34:57.001Z,31.50
2018-12-12T00:37:24.475Z,31.30
2018-12-12T00:39:51.935Z,31.10
2018-12-12T00:42:19.412Z,30.90
2018-12-12T00:44:46.936Z,30.70
2018-12-12T00:47:14.639Z,30.60
2018-12-12T00:49:42.170Z,30.40
2018-12-12T00:52:09.618Z,30.00
2018-12-12T00:54:37.303Z,30.10
2018-12-12T00:57:04.758Z,30.00
2018-12-12T00:59:32.310Z,29.80
2018-12-12T01:01:59.755Z,29.60
2018-12-12T01:04:27.327Z,29.50
2018-12-12T01:06:54.775Z,29.40
2018-12-12T01:09:22.227Z,29.30
2018-12-12T01:11:55.235Z,29.10
2018-12-12T01:14:22.698Z,29.00
2018-12-12T01:16:50.151Z,28.90
2018-12-12T01:19:17.651Z,28.80
2018-12-12T01:21:45.155Z,28.60
2018-12-12T01:24:12.604Z,28.50
2018-12-12T01:26:40.076Z,28.30
2018-12-12T01:29:07.535Z,28.10
2018-12-12T01:31:34.995Z,28.00
2018-12-12T01:34:02.546Z,27.90
2018-12-12T01:36:30.010Z,27.70
2018-12-12T01:38:57.459Z,27.60
2018-12-12T01:41:25.088Z,27.50
2018-12-12T01:43:52.584Z,27.30
2018-12-12T01:46:20.039Z,27.20
2018-12-12T01:48:47.599Z,27.00
2018-12-12T01:51:15.062Z,26.90
2018-12-12T01:53:44.456Z,26.80
2018-12-12T01:56:11.914Z,26.60
2018-12-12T01:58:39.366Z,26.50
2018-12-12T02:01:07.253Z,26.30
2018-12-12T02:03:34.703Z,26.10
2018-12-12T02:06:02.155Z,26.10
2018-12-12T02:08:29.595Z,25.80
2018-12-12T02:10:57.344Z,25.70
2018-12-12T02:13:34.366Z,25.60
2018-12-12T02:16:03.054Z,25.50
2018-12-12T02:18:31.806Z,25.40
2018-12-12T02:20:59.595Z,25.30
2018-12-12T02:23:27.126Z,25.10
2018-12-12T02:25:54.619Z,25.00
2018-12-12T02:28:22.067Z,24.90
2018-12-12T02:30:49.514Z,24.80
2018-12-12T02:33:16.955Z,24.70
2018-12-12T02:35:44.403Z,24.60
2018-12-12T02:38:11.897Z,24.50
2018-12-12T02:40:39.344Z,24.40
2018-12-12T02:43:06.810Z,24.50
2018-12-12T02:45:34.274Z,24.40
2018-12-12T02:48:01.836Z,24.20
2018-12-12T02:50:29.392Z,24.30
2018-12-12T02:52:56.872Z,24.20
2018-12-12T02:55:24.310Z,24.20
2018-12-12T02:57:51.885Z,24.20
2018-12-12T03:00:19.358Z,24.10
2018-12-12T03:02:46.803Z,24.10
2018-12-12T03:05:14.364Z,24.20
2018-12-12T03:07:41.820Z,24.20
2018-12-12T03:10:09.304Z,24.20
2018-12-12T03:12:36.815Z,24.30
2018-12-12T03:15:04.896Z,24.30
2018-12-12T03:17:32.442Z,24.30
2018-12-12T03:19:59.914Z,24.40
2018-12-12T03:22:27.483Z,24.30
2018-12-12T03:24:54.944Z,24.40
2018-12-12T03:27:22.483Z,24.40
2018-12-12T03:29:49.953Z,24.50
2018-12-12T03:32:17.569Z,24.40
2018-12-12T03:34:45.056Z,24.50
2018-12-12T03:37:12.620Z,24.50
2018-12-12T03:39:40.078Z,24.60
2018-12-12T03:42:07.535Z,24.70
2018-12-12T03:44:34.980Z,24.70
2018-12-12T03:47:02.423Z,24.80
2018-12-12T03:49:29.886Z,24.80
2018-12-12T03:51:57.358Z,24.90
2018-12-12T03:54:24.813Z,24.90
2018-12-12T03:56:52.384Z,25.00
2018-12-12T03:59:19.923Z,25.00
2018-12-12T04:01:47.372Z,25.10
2018-12-12T04:04:14.811Z,25.20
2018-12-12T04:06:42.290Z,25.30
2018-12-12T04:09:09.730Z,25.40
2018-12-12T04:11:37.183Z,25.40
2018-12-12T04:14:04.635Z,25.40
2018-12-12T04:16:32.162Z,25.40
2018-12-12T04:18:59.923Z,25.50
2018-12-12T04:21:27.474Z,25.60
2018-12-12T04:23:55.332Z,25.60
2018-12-12T04:26:22.770Z,25.70
2018-12-12T04:28:50.231Z,25.70
2018-12-12T04:31:17.707Z,25.80
2018-12-12T04:33:45.159Z,25.80
2018-12-12T04:36:12.608Z,25.90
2018-12-12T04:38:40.072Z,26.00
2018-12-12T04:41:07.531Z,26.20
2018-12-12T04:43:34.983Z,26.20
2018-12-12T04:46:02.443Z,26.30
2018-12-12T04:48:30.014Z,26.40
2018-12-12T04:50:57.572Z,26.50
2018-12-12T04:53:25.028Z,26.50
2018-12-12T04:55:52.500Z,26.50
2018-12-12T04:58:19.946Z,26.60
2018-12-12T05:00:47.499Z,26.60
2018-12-12T05:03:14.952Z,26.70
2018-12-12T05:05:42.523Z,26.80
2018-12-12T05:08:09.968Z,26.80
2018-12-12T05:10:37.415Z,26.90
2018-12-12T05:13:04.878Z,26.90
2018-12-12T05:15:32.319Z,27.00
2018-12-12T05:17:59.763Z,27.10
2018-12-12T05:20:27.294Z,27.20
2018-12-12T05:22:54.835Z,27.30
2018-12-12T05:25:22.271Z,27.40
2018-12-12T05:27:49.739Z,27.90
2018-12-12T05:30:17.187Z,27.50
2018-12-12T05:32:44.646Z,27.60
2018-12-12T05:35:12.098Z,27.60
2018-12-12T05:37:40.628Z,27.60
2018-12-12T05:40:08.796Z,27.70
2018-12-12T05:42:36.696Z,27.70
2018-12-12T05:45:05.211Z,28.00
2018-12-12T05:47:32.663Z,27.80
2018-12-12T05:50:00.127Z,28.00
2018-12-12T05:52:27.696Z,27.90
2018-12-12T05:54:55.157Z,28.00
2018-12-12T05:57:22.718Z,28.10
2018-12-12T05:59:50.275Z,28.20
2018-12-12T06:02:17.818Z,28.20
2018-12-12T06:04:45.275Z,28.20
2018-12-12T06:07:12.739Z,28.30
2018-12-12T06:09:40.199Z,28.50
2018-12-12T06:12:07.795Z,28.50
2018-12-12T06:14:35.260Z,28.50
2018-12-12T06:17:03.134Z,28.70
2018-12-12T06:19:30.582Z,28.80
2018-12-12T06:21:58.047Z,28.70
2018-12-12T06:24:25.503Z,28.70
2018-12-12T06:26:52.952Z,28.80
2018-12-12T06:29:20.467Z,28.90
2018-12-12T06:31:47.957Z,28.90
2018-12-12T06:34:15.431Z,29.00
2018-12-12T06:36:42.951Z,29.00
2018-12-12T06:39:10.503Z,29.10
2018-12-12T06:41:37.967Z,29.10
2018-12-12T06:44:05.547Z,29.20
2018-12-12T06:46:33.076Z,29.20
2018-12-12T06:49:00.552Z,29.30
2018-12-12T06:51:28.104Z,29.80
2018-12-12T06:53:55.547Z,29.40
2018-12-12T06:56:23.013Z,29.50
2018-12-12T06:58:50.456Z,29.50
2018-12-12T07:01:17.907Z,29.60
2018-12-12T07:03:45.407Z,29.60
2018-12-12T07:06:12.890Z,29.60
2018-12-12T07:08:40.335Z,29.70
2018-12-12T07:11:07.859Z,29.70
2018-12-12T07:13:35.825Z,29.80
2018-12-12T07:16:03.605Z,29.80
2018-12-12T07:18:31.056Z,30.40
2018-12-12T07:20:58.606Z,29.90
2018-12-12T07:23:26.371Z,30.00
2018-12-12T07:25:53.844Z,30.00
2018-12-12T07:28:21.263Z,30.00
2018-12-12T07:30:48.846Z,30.00
2018-12-12T07:33:16.416Z,30.00
2018-12-12T07:35:43.881Z,30.00
2018-12-12T07:38:11.419Z,30.20
2018-12-12T07:40:38.889Z,30.30
2018-12-12T07:43:06.334Z,30.40
2018-12-12T07:45:33.828Z,30.40
2018-12-12T07:48:01.672Z,30.50
2018-12-12T07:50:29.422Z,30.60
2018-12-12T07:52:56.957Z,30.60
2018-12-12T07:55:24.410Z,30.60
2018-12-12T07:57:51.855Z,30.70
2018-12-12T08:00:19.339Z,30.70
2018-12-12T08:02:46.811Z,30.90
2018-12-12T08:05:14.272Z,30.90
2018-12-12T08:07:41.707Z,30.90
2018-12-12T08:10:09.264Z,31.00
2018-12-12T08:12:36.751Z,31.10
2018-12-12T08:15:04.403Z,31.10
2018-12-12T08:17:31.846Z,31.10
2018-12-12T08:19:59.296Z,31.30
2018-12-12T08:22:26.727Z,31.30
2018-12-12T08:24:54.378Z,31.40
2018-12-12T08:27:21.912Z,31.50
2018-12-12T08:29:49.359Z,31.50
2018-12-12T08:32:16.818Z,31.50
2018-12-12T08:34:44.371Z,31.50
2018-12-12T08:37:11.835Z,31.50
2018-12-12T08:39:39.291Z,31.60
2018-12-12T08:42:06.733Z,31.50
2018-12-12T08:44:34.178Z,31.50
2018-12-12T08:47:01.864Z,31.70
2018-12-12T08:49:29.309Z,31.90
2018-12-12T08:51:56.781Z,31.80
2018-12-12T08:54:24.249Z,31.90
2018-12-12T08:56:52.840Z,32.00
2018-12-12T08:59:20.285Z,32.10
2018-12-12T09:01:47.739Z,32.00
2018-12-12T09:04:15.259Z,32.20
2018-12-12T09:06:42.799Z,32.90
2018-12-12T09:09:10.315Z,32.30
2018-12-12T09:11:37.752Z,32.30
2018-12-12T09:14:05.229Z,32.30
2018-12-12T09:16:32.786Z,32.40
2018-12-12T09:19:00.364Z,32.30
2018-12-12T09:21:27.800Z,32.40
2018-12-12T09:23:55.648Z,32.40
2018-12-12T09:26:23.057Z,32.50
2018-12-12T09:28:50.592Z,32.50
2018-12-12T09:31:18.035Z,32.00
2018-12-12T09:33:45.479Z,32.60
2018-12-12T09:36:12.952Z,32.70
2018-12-12T09:38:40.418Z,32.80
2018-12-12T09:41:07.975Z,32.80
2018-12-12T09:43:35.432Z,32.80
2018-12-12T09:46:02.893Z,32.90
2018-12-12T09:48:30.350Z,32.90
2018-12-12T09:50:57.807Z,33.00
2018-12-12T09:53:25.267Z,33.00
2018-12-12T09:55:52.719Z,33.10
2018-12-12T09:58:20.152Z,33.20
2018-12-12T10:00:47.594Z,33.20
2018-12-12T10:03:15.027Z,33.20
2018-12-12T10:05:42.475Z,33.30
2018-12-12T10:08:09.910Z,33.30
2018-12-12T10:10:37.357Z,33.30
2018-12-12T10:13:04.796Z,33.40
2018-12-12T10:15:32.252Z,33.30
2018-12-12T10:17:59.699Z,33.40
2018-12-12T10:20:27.141Z,33.40
2018-12-12T10:22:54.586Z,33.40
2018-12-12T10:25:22.015Z,33.50
2018-12-12T10:27:49.460Z,33.70
2018-12-12T10:30:17.028Z,33.60
2018-12-12T10:32:44.465Z,33.70
2018-12-12T10:35:12.112Z,33.70
2018-12-12T10:37:39.537Z,33.70
2018-12-12T10:40:07.003Z,33.90
2018-12-12T10:42:34.507Z,34.00
2018-12-12T10:45:01.980Z,34.00
2018-12-12T10:47:29.531Z,34.00
2018-12-12T10:49:56.991Z,34.00
2018-12-12T10:52:24.547Z,34.00
2018-12-12T10:54:51.987Z,34.00
2018-12-12T10:57:19.534Z,34.00
2018-12-12T10:59:47.023Z,34.10
2018-12-12T11:02:20.331Z,34.10
2018-12-12T11:04:47.900Z,34.20
2018-12-12T11:07:15.443Z,34.30
2018-12-12T11:09:42.912Z,34.20
2018-12-12T11:12:10.354Z,34.20
2018-12-12T11:14:38.217Z,34.20
2018-12-12T11:17:05.671Z,34.30
2018-12-12T11:19:33.118Z,34.40
2018-12-12T11:22:00.594Z,34.30
2018-12-12T11:24:28.051Z,34.40
2018-12-12T11:26:55.487Z,34.40
2018-12-12T11:29:22.966Z,34.50
2018-12-12T11:31:50.411Z,34.50
2018-12-12T11:34:17.934Z,34.60
2018-12-12T11:36:45.475Z,34.70
2018-12-12T11:39:12.931Z,34.80
2018-12-12T11:41:40.375Z,34.80
2018-12-12T11:44:07.913Z,34.90
2018-12-12T11:46:35.394Z,34.80
2018-12-12T11:49:02.943Z,34.80
2018-12-12T11:51:30.388Z,34.30
2018-12-12T11:53:57.855Z,34.80
2018-12-12T11:56:25.402Z,35.00
2018-12-12T11:58:52.966Z,35.00
2018-12-12T12:01:20.414Z,35.10
2018-12-12T12:03:47.951Z,35.00
2018-12-12T12:06:15.513Z,35.10
2018-12-12T12:08:42.994Z,35.10
2018-12-12T12:11:10.458Z,35.00
2018-12-12T12:13:38.005Z,34.90
2018-12-12T12:16:05.434Z,34.90
2018-12-12T12:18:32.930Z,35.50
2018-12-12T12:21:00.486Z,34.70
2018-12-12T12:23:28.032Z,34.80
2018-12-12T12:25:55.465Z,34.70
2018-12-12T12:28:22.907Z,34.60
2018-12-12T12:30:50.400Z,34.30
2018-12-12T12:33:19.370Z,33.20
2018-12-12T12:35:46.869Z,32.10
2018-12-12T12:38:14.334Z,31.40
2018-12-12T12:40:41.775Z,30.90
2018-12-12T12:43:09.243Z,30.30
2018-12-12T12:45:36.681Z,30.10
2018-12-12T12:48:04.115Z,29.80
2018-12-12T12:50:31.631Z,29.60
2018-12-12T12:52:59.122Z,29.50
2018-12-12T12:55:26.650Z,29.30
2018-12-12T12:57:54.110Z,29.10
2018-12-12T13:00:21.583Z,28.50
2018-12-12T13:02:49.023Z,27.50
2018-12-12T13:05:16.481Z,27.20
2018-12-12T13:07:43.993Z,26.20
2018-12-12T13:10:11.857Z,26.10
2018-12-12T13:12:39.523Z,25.80
2018-12-12T13:15:07.383Z,25.70
2018-12-12T13:17:35.056Z,25.60
2018-12-12T13:20:02.539Z,25.70
2018-12-12T13:22:30.279Z,25.70
2018-12-12T13:24:57.777Z,25.70
2018-12-12T13:27:25.262Z,25.80
2018-12-12T13:29:52.821Z,25.80
2018-12-12T13:32:20.929Z,25.80
2018-12-12T13:34:48.560Z,26.20
2018-12-12T13:37:16.176Z,26.10
2018-12-12T13:39:43.631Z,26.70
2018-12-12T13:42:11.175Z,26.50
2018-12-12T13:44:38.662Z,26.50
2018-12-12T13:47:06.143Z,26.50
2018-12-12T13:49:33.771Z,26.60
2018-12-12T13:52:01.223Z,26.80
2018-12-12T13:54:28.712Z,26.70
2018-12-12T13:56:56.167Z,26.80
2018-12-12T13:59:23.846Z,26.90
2018-12-12T14:01:51.294Z,27.00
2018-12-12T14:04:22.716Z,27.10
2018-12-12T14:06:48.262Z,27.20
2018-12-12T14:09:15.803Z,27.00
2018-12-12T14:11:43.274Z,27.00
2018-12-12T14:14:10.754Z,27.40
2018-12-12T14:16:38.308Z,28.10
2018-12-12T14:19:05.804Z,28.30
2018-12-12T14:21:33.268Z,29.00
2018-12-12T14:24:00.736Z,29.50
2018-12-12T14:26:28.184Z,29.80
2018-12-12T14:28:55.645Z,30.00
2018-12-12T14:31:23.788Z,30.30
2018-12-12T14:33:51.528Z,30.70
2018-12-12T14:36:19.056Z,31.00
2018-12-12T14:38:46.630Z,31.50
2018-12-12T14:41:14.068Z,31.60
2018-12-12T14:43:41.526Z,31.90
2018-12-12T14:46:09.088Z,32.30
2018-12-12T14:48:36.531Z,32.60
2018-12-12T14:51:04.000Z,32.90
2018-12-12T14:53:31.460Z,33.10
2018-12-12T14:55:58.917Z,33.20
2018-12-12T14:58:26.467Z,33.30
2018-12-12T15:00:53.922Z,33.50
2018-12-12T15:03:21.453Z,33.20
2018-12-12T15:05:49.002Z,33.50
2018-12-12T15:08:16.512Z,33.50
2018-12-12T15:10:44.158Z,33.70
2018-12-12T15:13:11.626Z,34.10
2018-12-12T15:15:39.101Z,34.20
2018-12-12T15:18:06.579Z,34.30
2018-12-12T15:20:34.108Z,34.50
2018-12-12T15:23:01.729Z,34.20
2018-12-12T15:25:29.333Z,34.80
2018-12-12T15:27:56.879Z,35.00
2018-12-12T15:30:24.465Z,34.90
2018-12-12T15:32:52.021Z,34.90
2018-12-12T15:35:19.587Z,35.00
2018-12-12T15:37:47.119Z,35.30
2018-12-12T15:40:14.715Z,35.40
2018-12-12T15:42:42.155Z,35.30
2018-12-12T15:45:09.863Z,35.50
2018-12-12T15:47:37.307Z,35.70
2018-12-12T15:50:04.759Z,36.00
2018-12-12T15:52:32.238Z,36.10
2018-12-12T15:54:59.676Z,36.30
2018-12-12T15:57:27.136Z,36.40
2018-12-12T15:59:54.667Z,36.40
2018-12-12T16:02:22.135Z,36.30
2018-12-12T16:04:49.618Z,36.50
2018-12-12T16:07:17.068Z,36.60
2018-12-12T16:09:44.602Z,36.50
2018-12-12T16:12:12.140Z,36.90
2018-12-12T16:14:39.587Z,36.60
2018-12-12T16:17:07.079Z,36.80
2018-12-12T16:19:34.543Z,36.90
2018-12-12T16:22:02.178Z,37.70
2018-12-12T16:24:29.751Z,37.20
2018-12-12T16:26:57.315Z,37.20
2018-12-12T16:29:24.764Z,37.40
2018-12-12T16:31:52.216Z,37.50
2018-12-12T16:34:19.675Z,37.60
2018-12-12T16:36:47.203Z,37.60
2018-12-12T16:39:14.658Z,37.80
2018-12-12T16:41:42.235Z,37.80
2018-12-12T16:44:09.775Z,37.90
2018-12-12T16:46:37.219Z,37.90
2018-12-12T16:49:04.683Z,38.00
2018-12-12T16:51:32.124Z,38.10
2018-12-12T16:53:59.627Z,38.30
2018-12-12T16:56:27.085Z,38.30
2018-12-12T16:58:54.531Z,38.30
2018-12-12T17:01:21.984Z,38.40
2018-12-12T17:03:49.469Z,38.50
2018-12-12T17:06:17.000Z,38.50
2018-12-12T17:08:44.436Z,38.50
2018-12-12T17:11:11.893Z,38.60
2018-12-12T17:13:40.128Z,38.70
2018-12-12T17:16:07.813Z,38.80
2018-12-12T17:18:35.291Z,38.90
2018-12-12T17:21:02.894Z,39.00
2018-12-12T17:23:30.522Z,39.10
2018-12-12T17:25:58.060Z,39.10
2018-12-12T17:28:25.521Z,39.20
2018-12-12T17:30:52.999Z,39.00
2018-12-12T17:33:20.436Z,39.30
2018-12-12T17:35:47.898Z,39.40
2018-12-12T17:38:15.416Z,39.50
2018-12-12T17:40:42.975Z,39.50
2018-12-12T17:43:10.567Z,39.60
2018-12-12T17:45:38.118Z,39.80
2018-12-12T17:48:05.680Z,40.10
2018-12-12T17:50:33.196Z,40.10
2018-12-12T17:53:00.706Z,40.10
2018-12-12T17:55:28.247Z,40.10
2018-12-12T17:57:55.808Z,40.40
2018-12-12T18:00:23.382Z,40.40
2018-12-12T18:02:50.847Z,41.10
2018-12-12T18:05:18.447Z,40.40
2018-12-12T18:07:46.009Z,40.50
2018-12-12T18:10:13.483Z,40.60
2018-12-12T18:12:40.974Z,40.70
2018-12-12T18:15:08.471Z,40.80
2018-12-12T18:17:35.952Z,41.30
2018-12-12T18:20:04.059Z,40.70
2018-12-12T18:22:31.746Z,40.70
2018-12-12T18:24:59.262Z,40.80
2018-12-12T18:27:26.738Z,40.80
2018-12-12T18:29:54.351Z,40.80
2018-12-12T18:32:21.827Z,41.00
2018-12-12T18:34:49.378Z,41.00
2018-12-12T18:37:16.820Z,41.10
2018-12-12T18:39:44.331Z,41.00
2018-12-12T18:42:11.870Z,41.00
2018-12-12T18:44:39.335Z,41.00
2018-12-12T18:47:06.908Z,41.00
2018-12-12T18:49:34.351Z,41.10
2018-12-12T18:52:01.823Z,41.20
2018-12-12T18:54:29.395Z,41.30
2018-12-12T18:56:56.857Z,41.50
2018-12-12T18:59:27.091Z,41.50
2018-12-12T19:01:55.900Z,41.60
2018-12-12T19:04:23.492Z,41.70
2018-12-12T19:06:50.950Z,42.40
2018-12-12T19:09:18.403Z,41.70
2018-12-12T19:11:45.937Z,41.80
2018-12-12T19:14:13.391Z,41.90
2018-12-12T19:16:40.951Z,41.90
2018-12-12T19:19:08.437Z,41.90
2018-12-12T19:21:35.884Z,41.90
2018-12-12T19:24:03.367Z,42.00
2018-12-12T19:26:30.901Z,42.00
2018-12-12T19:28:58.439Z,42.00
2018-12-12T19:31:25.954Z,42.00
2018-12-12T19:33:53.411Z,42.00
2018-12-12T19:36:20.854Z,42.10
2018-12-12T19:38:48.313Z,42.20
2018-12-12T19:41:15.795Z,42.20
2018-12-12T19:43:43.302Z,42.30
2018-12-12T19:46:10.769Z,42.30
2018-12-12T19:48:38.244Z,42.30
2018-12-12T19:51:05.763Z,42.30
2018-12-12T19:53:33.375Z,42.40
2018-12-12T19:56:00.796Z,42.40
2018-12-12T19:58:28.366Z,42.40
2018-12-12T20:00:55.833Z,42.50
2018-12-12T20:03:23.337Z,42.50
2018-12-12T20:05:50.819Z,42.50
2018-12-12T20:08:18.269Z,42.50
2018-12-12T20:10:45.731Z,42.50
2018-12-12T20:13:13.208Z,42.50
2018-12-12T20:15:44.579Z,42.60
2018-12-12T20:18:12.477Z,42.50
2018-12-12T20:20:39.975Z,42.60
2018-12-12T20:23:07.418Z,42.60
2018-12-12T20:25:34.880Z,42.70
2018-12-12T20:28:02.311Z,42.80
2018-12-12T20:30:35.336Z,42.80
2018-12-12T20:32:59.196Z,42.80
2018-12-12T20:35:26.659Z,42.90
2018-12-12T20:37:54.215Z,42.90
2018-12-12T20:40:21.670Z,42.90
2018-12-12T20:42:49.163Z,43.00
2018-12-12T20:45:16.701Z,43.00
2018-12-12T20:47:44.171Z,43.00
2018-12-12T20:50:11.695Z,43.00
2018-12-12T20:52:39.195Z,43.00
2018-12-12T20:55:06.731Z,42.90
2018-12-12T20:57:34.291Z,43.00
2018-12-12T21:00:01.761Z,43.00
2018-12-12T21:02:29.199Z,43.00
2018-12-12T21:04:56.655Z,43.00
2018-12-12T21:07:24.909Z,43.10
2018-12-12T21:09:52.370Z,43.20
2018-12-12T21:12:19.845Z,43.30
2018-12-12T21:14:47.321Z,43.30
2018-12-12T21:17:15.783Z,43.30
2018-12-12T21:19:43.247Z,43.40
2018-12-12T21:22:10.802Z,43.40
2018-12-12T21:24:38.252Z,43.40
2018-12-12T21:27:05.694Z,43.40
2018-12-12T21:29:33.171Z,43.40
2018-12-12T21:32:00.757Z,43.40
2018-12-12T21:34:28.294Z,43.50
2018-12-12T21:36:55.756Z,43.50
2018-12-12T21:39:23.320Z,43.50
2018-12-12T21:41:50.781Z,43.50
2018-12-12T21:44:18.241Z,43.50
2018-12-12T21:46:45.798Z,43.50
2018-12-12T21:49:13.230Z,43.50
2018-12-12T21:51:40.739Z,43.50
2018-12-12T21:54:08.176Z,43.50
2018-12-12T21:56:35.610Z,43.70
2018-12-12T21:59:03.061Z,43.60
2018-12-12T22:01:30.552Z,43.60
2018-12-12T22:03:57.996Z,43.70
2018-12-12T22:06:25.454Z,43.70
2018-12-12T22:08:52.927Z,43.70
2018-12-12T22:11:20.386Z,43.70
2018-12-12T22:13:47.829Z,43.70
2018-12-12T22:16:15.394Z,43.70
2018-12-12T22:18:42.831Z,43.80
2018-12-12T22:21:10.310Z,43.70
2018-12-12T22:23:37.875Z,43.80
2018-12-12T22:26:05.311Z,43.80
2018-12-12T22:28:32.885Z,43.80
2018-12-12T22:31:00.423Z,43.80
2018-12-12T22:33:27.967Z,43.80
2018-12-12T22:35:55.473Z,43.80
2018-12-12T22:38:22.938Z,43.80
2018-12-12T22:40:50.373Z,43.60
2018-12-12T22:43:17.875Z,43.80
2018-12-12T22:45:45.490Z,43.90
2018-12-12T22:48:12.943Z,43.80
2018-12-12T22:50:40.612Z,43.80
2018-12-12T22:53:08.064Z,43.70
2018-12-12T22:55:35.614Z,43.70
2018-12-12T22:58:03.098Z,43.70
2018-12-12T23:00:34.698Z,43.70
2018-12-12T23:03:02.238Z,43.70
2018-12-12T23:05:29.698Z,43.60
2018-12-12T23:07:57.198Z,43.70
2018-12-12T23:10:24.655Z,43.70
2018-12-12T23:12:52.146Z,43.60
2018-12-12T23:15:19.799Z,43.60
2018-12-12T23:17:47.255Z,43.10
2018-12-12T23:20:14.791Z,43.60
2018-12-12T23:22:42.240Z,43.60
2018-12-12T23:25:09.713Z,43.60
2018-12-12T23:27:37.178Z,43.50
2018-12-12T23:30:06.338Z,43.50
2018-12-12T23:32:33.784Z,43.60
2018-12-12T23:35:01.248Z,44.20
2018-12-12T23:37:28.763Z,43.60
2018-12-12T23:39:56.215Z,43.70
2018-12-12T23:42:23.774Z,43.60
2018-12-12T23:44:51.336Z,43.70
2018-12-12T23:47:18.875Z,43.60
2018-12-12T23:49:46.408Z,44.20
2018-12-12T23:52:13.871Z,43.60
2018-12-12T23:54:41.321Z,43.60
2018-12-12T23:57:08.839Z,43.50
2018-12-12T23:59:36.479Z,43.60
